Time;durP1;ratioP1;P1;durP2;ratioP2;P2;SDS_P1;SDS_P2;PMS_P1;PMS_P2;Temp;Humidity;BMP_temperature;BMP_pressure;BME280_temperature;BME280_humidity;BME280_pressure;Samples;Min_cycle;Max_cycle;Signal;HPM_P1;HPM_P2
2023/03/20 00:00:58;;;;;;;6.28;5.70;;;;;;;;;;5103923;28;20216;-68
2023/03/20 00:03:26;;;;;;;6.45;5.80;;;;;;;;;;5104624;28;20559;-68
2023/03/20 00:05:54;;;;;;;6.35;5.95;;;;;;;;;;5103841;28;20241;-68
2023/03/20 00:08:21;;;;;;;6.40;5.82;;;;;;;;;;5104271;28;20195;-68
2023/03/20 00:10:47;;;;;;;6.57;5.97;;;;;;;;;;5103801;28;20199;-68
2023/03/20 00:13:15;;;;;;;7.10;6.15;;;;;;;;;;5103976;28;20195;-68
2023/03/20 00:15:43;;;;;;;6.80;6.20;;;;;;;;;;5104004;28;20188;-68
2023/03/20 00:18:13;;;;;;;7.45;6.75;;;;;;;;;;5103684;28;20210;-68
2023/03/20 00:20:39;;;;;;;7.20;6.55;;;;;;;;;;5103515;28;20230;-68
2023/03/20 00:23:07;;;;;;;8.20;7.28;;;;;;;;;;5103867;28;20195;-68
2023/03/20 00:25:35;;;;;;;8.35;7.57;;;;;;;;;;5103796;28;20199;-68
2023/03/20 00:28:01;;;;;;;8.82;7.93;;;;;;;;;;5103605;28;20215;-68
2023/03/20 00:30:29;;;;;;;8.88;7.93;;;;;;;;;;5102891;28;20237;-68
2023/03/20 00:32:56;;;;;;;9.88;8.88;;;;;;;;;;5103435;28;20202;-68
2023/03/20 00:35:23;;;;;;;9.30;8.38;;;;;;;;;;5103521;28;20196;-68
2023/03/20 00:37:50;;;;;;;8.32;7.53;;;;;;;;;;5103675;28;20421;-68
2023/03/20 00:40:18;;;;;;;13.60;8.40;;;;;;;;;;5103040;28;20215;-68
2023/03/20 00:42:45;;;;;;;8.77;8.07;;;;;;;;;;5103441;28;20672;-68
2023/03/20 00:45:13;;;;;;;7.57;6.95;;;;;;;;;;5103239;28;20195;-68
2023/03/20 00:47:40;;;;;;;11.95;7.47;;;;;;;;;;5103032;28;20253;-68
2023/03/20 00:50:07;;;;;;;8.65;7.70;;;;;;;;;;5103335;28;20238;-68
2023/03/20 00:52:34;;;;;;;8.88;7.10;;;;;;;;;;5103447;28;20195;-68
2023/03/20 00:55:01;;;;;;;8.57;7.70;;;;;;;;;;5103223;28;20196;-68
2023/03/20 00:57:30;;;;;;;9.48;7.50;;;;;;;;;;5102867;28;20234;-68
2023/03/20 00:59:58;;;;;;;8.57;6.72;;;;;;;;;;5102639;28;20199;-68
2023/03/20 01:02:25;;;;;;;7.95;7.15;;;;;;;;;;5103239;28;20200;-68
2023/03/20 01:04:52;;;;;;;7.53;6.43;;;;;;;;;;5103272;28;20200;-68
2023/03/20 01:07:18;;;;;;;7.05;6.30;;;;;;;;;;5103029;28;20587;-68
2023/03/20 01:09:46;;;;;;;7.25;6.65;;;;;;;;;;5102537;28;20207;-68
2023/03/20 01:12:13;;;;;;;6.97;6.38;;;;;;;;;;5102808;28;20484;-68
2023/03/20 01:14:40;;;;;;;6.25;5.68;;;;;;;;;;5102662;28;20309;-68
2023/03/20 01:17:09;;;;;;;7.57;6.70;;;;;;;;;;5102838;28;20256;-68
2023/03/20 01:19:36;;;;;;;5.95;5.45;;;;;;;;;;5102783;28;20503;-68
2023/03/20 01:22:03;;;;;;;6.20;5.80;;;;;;;;;;5102577;28;20218;-68
2023/03/20 01:24:29;;;;;;;7.38;6.20;;;;;;;;;;5102637;28;20199;-68
2023/03/20 01:26:57;;;;;;;6.85;6.30;;;;;;;;;;5102358;28;20204;-68
2023/03/20 01:29:24;;;;;;;6.30;5.68;;;;;;;;;;5102758;28;20271;-68
2023/03/20 01:31:52;;;;;;;6.22;5.70;;;;;;;;;;5102670;28;20414;-68
2023/03/20 01:34:19;;;;;;;5.65;5.22;;;;;;;;;;5102607;28;20199;-68
2023/03/20 01:36:48;;;;;;;5.95;5.47;;;;;;;;;;5102509;28;20195;-68
2023/03/20 01:39:14;;;;;;;6.13;5.35;;;;;;;;;;5102367;28;20198;-68
2023/03/20 01:41:41;;;;;;;5.85;5.32;;;;;;;;;;5101206;28;20215;-68
2023/03/20 01:44:16;;;;;;;5.93;5.53;;;;;;;;;;5102231;28;20196;-68
2023/03/20 01:46:42;;;;;;;6.28;5.75;;;;;;;;;;5102520;28;20407;-68
2023/03/20 01:49:30;;;;;;;9.27;5.47;;;;;;;;;;5102166;28;20200;-69
2023/03/20 01:51:57;;;;;;;7.18;6.18;;;;;;;;;;5101870;28;20264;-69
2023/03/20 01:54:25;;;;;;;8.07;5.80;;;;;;;;;;5102514;28;20257;-69
2023/03/20 01:56:53;;;;;;;8.90;5.90;;;;;;;;;;5102472;28;20203;-69
2023/03/20 01:59:21;;;;;;;5.20;4.70;;;;;;;;;;5102109;28;20208;-69
2023/03/20 02:01:47;;;;;;;5.50;5.10;;;;;;;;;;5101909;28;20226;-69
2023/03/20 02:04:15;;;;;;;5.10;4.55;;;;;;;;;;5102183;28;20549;-69
2023/03/20 02:06:43;;;;;;;4.55;4.05;;;;;;;;;;5102093;28;20223;-69
2023/03/20 02:09:10;;;;;;;5.22;4.25;;;;;;;;;;5102352;28;20545;-69
2023/03/20 02:11:37;;;;;;;3.83;3.63;;;;;;;;;;5102047;28;20192;-69
2023/03/20 02:14:03;;;;;;;3.90;3.70;;;;;;;;;;5102131;28;20205;-69
2023/03/20 02:16:30;;;;;;;3.40;3.30;;;;;;;;;;5102100;28;20234;-69
2023/03/20 02:18:56;;;;;;;4.57;4.18;;;;;;;;;;5102001;28;20202;-69
2023/03/20 02:21:48;;;;;;;3.75;3.45;;;;;;;;;;5101638;28;20224;-69
2023/03/20 02:24:34;;;;;;;3.10;3.00;;;;;;;;;;5102442;28;20204;-69
2023/03/20 02:27:06;;;;;;;3.58;3.38;;;;;;;;;;5102001;28;20502;-69
2023/03/20 02:29:50;;;;;;;2.95;2.85;;;;;;;;;;5101775;28;20199;-68
2023/03/20 02:32:25;;;;;;;2.85;2.72;;;;;;;;;;5102105;28;20192;-69
2023/03/20 02:35:01;;;;;;;3.00;2.83;;;;;;;;;;5101965;28;20203;-69
2023/03/20 02:37:39;;;;;;;3.72;3.53;;;;;;;;;;5101845;28;20196;-67
2023/03/20 02:40:09;;;;;;;3.67;3.47;;;;;;;;;;5101607;28;20211;-67
2023/03/20 02:42:39;;;;;;;4.05;3.33;;;;;;;;;;5102020;28;20219;-69
2023/03/20 02:45:10;;;;;;;3.85;3.45;;;;;;;;;;5101669;28;20203;-68
2023/03/20 02:47:37;;;;;;;5.30;3.35;;;;;;;;;;5101457;28;20424;-69
2023/03/20 02:50:09;;;;;;;3.60;3.30;;;;;;;;;;5101708;28;20210;-68
2023/03/20 02:52:40;;;;;;;3.58;3.38;;;;;;;;;;5102279;28;20382;-69
2023/03/20 02:55:14;;;;;;;3.50;3.30;;;;;;;;;;5105383;28;20195;-69
2023/03/20 02:57:43;;;;;;;3.33;3.03;;;;;;;;;;5105314;28;20195;-69
2023/03/20 03:00:12;;;;;;;3.10;3.00;;;;;;;;;;5105534;28;20533;-67
2023/03/20 03:02:39;;;;;;;4.00;3.78;;;;;;;;;;5105201;28;20254;-69
2023/03/20 03:05:09;;;;;;;4.07;3.65;;;;;;;;;;5105125;28;20214;-69
2023/03/20 03:07:36;;;;;;;3.92;3.53;;;;;;;;;;5105178;28;20460;-69
2023/03/20 03:10:05;;;;;;;3.72;3.50;;;;;;;;;;5104876;28;20400;-69
2023/03/20 03:12:35;;;;;;;3.40;3.20;;;;;;;;;;5105044;28;20207;-69
2023/03/20 03:15:02;;;;;;;3.58;3.28;;;;;;;;;;5105021;28;20195;-69
2023/03/20 03:17:31;;;;;;;3.13;2.67;;;;;;;;;;5105058;28;20202;-69
2023/03/20 03:19:58;;;;;;;2.88;2.67;;;;;;;;;;5104815;28;20496;-69
2023/03/20 03:22:25;;;;;;;2.95;2.55;;;;;;;;;;5104804;28;20219;-69
2023/03/20 03:24:52;;;;;;;2.90;2.70;;;;;;;;;;5104720;28;20192;-69
2023/03/20 03:27:21;;;;;;;2.88;2.63;;;;;;;;;;5104811;28;20457;-69
2023/03/20 03:29:50;;;;;;;2.42;2.22;;;;;;;;;;5104803;28;20429;-69
2023/03/20 03:32:22;;;;;;;2.55;2.33;;;;;;;;;;5104881;28;20360;-69
2023/03/20 03:34:49;;;;;;;2.38;2.17;;;;;;;;;;5104646;28;20195;-69
2023/03/20 03:37:18;;;;;;;1.92;1.73;;;;;;;;;;5104510;28;20204;-69
2023/03/20 03:39:47;;;;;;;2.55;1.88;;;;;;;;;;5104574;28;20199;-69
2023/03/20 03:42:17;;;;;;;1.80;1.70;;;;;;;;;;5104609;28;20216;-69
2023/03/20 03:44:49;;;;;;;2.17;1.90;;;;;;;;;;5104688;28;20501;-69
2023/03/20 03:47:19;;;;;;;1.98;1.77;;;;;;;;;;5104408;28;20267;-69
2023/03/20 03:49:48;;;;;;;2.40;2.20;;;;;;;;;;5104007;28;20267;-69
2023/03/20 03:52:16;;;;;;;3.10;2.13;;;;;;;;;;5104496;28;20393;-69
2023/03/20 03:54:43;;;;;;;3.60;2.60;;;;;;;;;;5104455;28;20556;-69
2023/03/20 03:57:11;;;;;;;3.60;3.05;;;;;;;;;;5104248;28;20207;-69
2023/03/20 03:59:39;;;;;;;2.60;2.40;;;;;;;;;;5104115;28;20218;-69
2023/03/20 04:02:08;;;;;;;5.18;2.40;;;;;;;;;;5104069;28;20215;-69
2023/03/20 04:04:35;;;;;;;2.65;2.55;;;;;;;;;;5103020;28;20195;-69
2023/03/20 04:07:01;;;;;;;2.60;2.40;;;;;;;;;;5104339;28;20195;-69
2023/03/20 04:09:28;;;;;;;3.78;2.45;;;;;;;;;;5103770;28;20202;-69
2023/03/20 04:11:54;;;;;;;2.33;2.22;;;;;;;;;;5104128;28;20191;-69
2023/03/20 04:14:21;;;;;;;3.10;2.65;;;;;;;;;;5103919;28;20202;-69
2023/03/20 04:16:47;;;;;;;2.53;2.42;;;;;;;;;;5103772;28;20446;-69
2023/03/20 04:19:15;;;;;;;2.28;2.17;;;;;;;;;;5103946;28;20195;-69
2023/03/20 04:21:42;;;;;;;2.88;2.50;;;;;;;;;;5103654;28;20269;-69
2023/03/20 04:24:08;;;;;;;2.65;2.50;;;;;;;;;;5103780;28;20495;-69
2023/03/20 04:26:34;;;;;;;2.83;2.63;;;;;;;;;;5103811;28;20421;-69
2023/03/20 04:29:01;;;;;;;2.20;2.00;;;;;;;;;;5103498;28;20219;-69
2023/03/20 04:31:28;;;;;;;2.45;2.28;;;;;;;;;;5103334;28;20223;-69
2023/03/20 04:33:54;;;;;;;2.20;2.10;;;;;;;;;;5103545;28;20396;-69
2023/03/20 04:36:22;;;;;;;1.98;1.88;;;;;;;;;;5103515;28;20377;-69
2023/03/20 04:38:48;;;;;;;2.65;1.90;;;;;;;;;;5103391;28;20203;-69
2023/03/20 04:41:14;;;;;;;1.52;1.52;;;;;;;;;;5103130;28;20223;-69
2023/03/20 04:43:41;;;;;;;1.83;1.80;;;;;;;;;;5103354;28;20196;-69
2023/03/20 04:46:07;;;;;;;1.80;1.80;;;;;;;;;;5103139;28;20200;-69
2023/03/20 04:48:33;;;;;;;1.95;1.70;;;;;;;;;;5103356;28;20195;-69
2023/03/20 04:51:00;;;;;;;1.75;1.67;;;;;;;;;;5103186;28;20233;-69
2023/03/20 04:53:27;;;;;;;2.10;2.00;;;;;;;;;;5103312;28;20196;-69
2023/03/20 04:55:54;;;;;;;2.35;1.92;;;;;;;;;;5103036;28;20230;-69
2023/03/20 04:58:21;;;;;;;2.92;2.75;;;;;;;;;;5102887;28;20491;-69
2023/03/20 05:00:47;;;;;;;3.20;3.00;;;;;;;;;;5102721;28;20217;-69
2023/03/20 05:03:13;;;;;;;3.53;3.33;;;;;;;;;;5103242;28;20225;-69
2023/03/20 05:05:39;;;;;;;5.47;4.00;;;;;;;;;;5103132;28;20200;-69
2023/03/20 05:08:06;;;;;;;4.57;3.42;;;;;;;;;;5103303;28;20203;-69
2023/03/20 05:10:33;;;;;;;4.65;3.40;;;;;;;;;;5102611;28;20204;-69
2023/03/20 05:13:00;;;;;;;3.53;3.22;;;;;;;;;;5102784;28;20191;-69
2023/03/20 05:15:26;;;;;;;7.65;4.00;;;;;;;;;;5102467;28;20210;-70
2023/03/20 05:17:53;;;;;;;5.88;4.47;;;;;;;;;;5102672;28;20199;-70
2023/03/20 05:20:20;;;;;;;5.95;3.90;;;;;;;;;;5102620;28;20241;-70
2023/03/20 05:22:48;;;;;;;4.65;3.50;;;;;;;;;;5102658;28;20223;-70
2023/03/20 05:25:14;;;;;;;3.47;3.17;;;;;;;;;;5102741;28;20199;-70
2023/03/20 05:27:43;;;;;;;4.68;2.90;;;;;;;;;;5102402;28;20224;-69
2023/03/20 05:30:10;;;;;;;2.30;2.20;;;;;;;;;;5102477;28;20194;-69
2023/03/20 05:32:37;;;;;;;2.15;2.05;;;;;;;;;;5102668;28;20391;-69
2023/03/20 05:35:04;;;;;;;2.22;2.10;;;;;;;;;;5102573;28;20271;-69
2023/03/20 05:37:30;;;;;;;1.90;1.80;;;;;;;;;;5102319;28;20253;-69
2023/03/20 05:39:56;;;;;;;2.35;2.20;;;;;;;;;;5102442;28;20503;-69
2023/03/20 05:42:22;;;;;;;2.45;2.25;;;;;;;;;;5102226;28;20530;-70
2023/03/20 05:44:50;;;;;;;2.25;2.00;;;;;;;;;;5102573;28;20196;-70
2023/03/20 05:47:16;;;;;;;4.53;2.97;;;;;;;;;;5102325;28;20517;-70
2023/03/20 05:49:43;;;;;;;4.07;3.40;;;;;;;;;;5102254;28;20203;-70
2023/03/20 05:52:09;;;;;;;5.70;3.72;;;;;;;;;;5102842;28;20200;-70
2023/03/20 05:54:35;;;;;;;4.22;3.63;;;;;;;;;;5102243;28;20218;-70
2023/03/20 05:57:02;;;;;;;6.88;3.00;;;;;;;;;;5102203;28;20195;-70
2023/03/20 05:59:28;;;;;;;2.33;2.20;;;;;;;;;;5102396;28;20195;-70
2023/03/20 06:01:55;;;;;;;2.20;2.10;;;;;;;;;;5102190;28;20251;-70
2023/03/20 06:04:22;;;;;;;2.38;2.00;;;;;;;;;;5102437;28;20219;-71
2023/03/20 06:06:48;;;;;;;2.67;2.58;;;;;;;;;;5102111;28;20195;-70
2023/03/20 06:09:14;;;;;;;2.17;2.08;;;;;;;;;;5102439;28;20415;-70
2023/03/20 06:11:40;;;;;;;2.70;2.50;;;;;;;;;;5102316;28;20222;-70
2023/03/20 06:14:07;;;;;;;5.75;2.67;;;;;;;;;;5102440;28;20206;-70
2023/03/20 06:16:33;;;;;;;3.95;2.20;;;;;;;;;;5102249;28;20203;-70
2023/03/20 06:19:00;;;;;;;2.08;1.90;;;;;;;;;;5102116;28;20199;-70
2023/03/20 06:21:28;;;;;;;4.00;1.77;;;;;;;;;;5101864;28;20215;-70
2023/03/20 06:23:54;;;;;;;2.22;2.03;;;;;;;;;;5102063;28;20503;-70
2023/03/20 06:26:20;;;;;;;2.20;2.10;;;;;;;;;;5101969;28;20218;-70
2023/03/20 06:28:47;;;;;;;3.83;1.92;;;;;;;;;;5104453;28;20215;-70
2023/03/20 06:31:13;;;;;;;1.83;1.75;;;;;;;;;;5106122;28;20379;-70
2023/03/20 06:33:39;;;;;;;1.85;1.75;;;;;;;;;;5105991;28;20198;-70
2023/03/20 06:36:07;;;;;;;1.83;1.73;;;;;;;;;;5105635;28;20202;-70
2023/03/20 06:38:34;;;;;;;1.98;1.88;;;;;;;;;;5106028;28;20196;-69
2023/03/20 06:41:00;;;;;;;1.95;1.85;;;;;;;;;;5105677;28;20534;-69
2023/03/20 06:43:26;;;;;;;2.17;1.90;;;;;;;;;;5105537;28;20640;-69
2023/03/20 06:45:53;;;;;;;1.80;1.70;;;;;;;;;;5105693;28;20504;-70
2023/03/20 06:48:20;;;;;;;1.80;1.70;;;;;;;;;;5106029;28;20218;-70
2023/03/20 06:50:47;;;;;;;4.10;1.48;;;;;;;;;;5105331;28;20303;-70
2023/03/20 06:53:15;;;;;;;1.67;1.52;;;;;;;;;;5105325;28;20207;-69
2023/03/20 06:55:42;;;;;;;1.52;1.42;;;;;;;;;;5105385;28;20215;-70
2023/03/20 06:58:08;;;;;;;1.50;1.40;;;;;;;;;;5105552;28;20518;-70
2023/03/20 07:00:34;;;;;;;1.40;1.40;;;;;;;;;;5106333;28;20367;-69
2023/03/20 07:03:01;;;;;;;1.25;1.25;;;;;;;;;;5105775;28;20453;-69
2023/03/20 07:05:27;;;;;;;1.88;1.77;;;;;;;;;;5105525;28;20200;-70
2023/03/20 07:07:53;;;;;;;1.33;1.23;;;;;;;;;;5105065;28;20204;-69
2023/03/20 07:10:22;;;;;;;1.95;1.20;;;;;;;;;;5104975;28;20491;-69
2023/03/20 07:12:49;;;;;;;1.60;1.50;;;;;;;;;;5105462;28;20263;-69
2023/03/20 07:15:16;;;;;;;2.17;1.35;;;;;;;;;;5105630;28;20502;-69
2023/03/20 07:17:42;;;;;;;1.58;1.33;;;;;;;;;;5105379;28;20389;-69
2023/03/20 07:20:09;;;;;;;1.95;1.30;;;;;;;;;;5104916;28;20515;-69
2023/03/20 07:22:35;;;;;;;3.45;1.48;;;;;;;;;;5104975;28;20220;-69
2023/03/20 07:25:02;;;;;;;1.95;1.23;;;;;;;;;;5105189;28;20196;-69
2023/03/20 07:27:29;;;;;;;1.95;0.98;;;;;;;;;;5104997;28;20456;-69
2023/03/20 07:29:56;;;;;;;0.90;0.90;;;;;;;;;;5104785;28;20197;-69
2023/03/20 07:32:22;;;;;;;1.42;0.93;;;;;;;;;;5095370;28;20222;-59
2023/03/20 07:34:49;;;;;;;1.63;1.35;;;;;;;;;;5087889;28;20212;-59
2023/03/20 07:37:16;;;;;;;1.15;1.15;;;;;;;;;;5098226;28;20275;-59
2023/03/20 07:39:42;;;;;;;1.08;0.90;;;;;;;;;;5097414;28;20291;-59
2023/03/20 07:42:08;;;;;;;1.00;1.00;;;;;;;;;;5086746;28;20363;-59
2023/03/20 07:44:36;;;;;;;0.98;0.70;;;;;;;;;;5094830;28;20211;-59
2023/03/20 07:47:02;;;;;;;0.80;0.80;;;;;;;;;;5097826;28;20286;-59
2023/03/20 07:49:28;;;;;;;1.00;1.00;;;;;;;;;;5087385;28;20204;-58
2023/03/20 07:51:55;;;;;;;1.20;1.05;;;;;;;;;;5088391;28;20208;-60
2023/03/20 07:54:22;;;;;;;1.08;1.00;;;;;;;;;;5086580;28;20223;-60
2023/03/20 07:56:49;;;;;;;0.90;0.90;;;;;;;;;;5089512;28;20210;-60
2023/03/20 07:59:16;;;;;;;0.85;0.85;;;;;;;;;;5087901;28;20211;-59
2023/03/20 08:01:43;;;;;;;1.45;1.20;;;;;;;;;;5086807;28;20283;-59
2023/03/20 08:04:10;;;;;;;1.70;1.40;;;;;;;;;;5086040;28;20220;-59
2023/03/20 08:06:38;;;;;;;1.38;1.00;;;;;;;;;;5085426;28;20226;-59
2023/03/20 08:09:04;;;;;;;1.60;0.90;;;;;;;;;;5082788;28;20208;-60
2023/03/20 08:11:31;;;;;;;1.25;1.25;;;;;;;;;;5088266;28;20211;-60
2023/03/20 08:13:58;;;;;;;3.50;1.08;;;;;;;;;;5097289;28;20463;-60
2023/03/20 08:16:24;;;;;;;1.92;1.10;;;;;;;;;;5097633;28;20449;-60
2023/03/20 08:18:55;;;;;;;1.77;1.25;;;;;;;;;;5096988;28;20249;-60
2023/03/20 08:21:21;;;;;;;2.10;1.25;;;;;;;;;;5097705;28;20472;-60
2023/03/20 08:23:47;;;;;;;1.20;1.20;;;;;;;;;;5097492;28;20463;-59
2023/03/20 08:26:13;;;;;;;1.75;1.10;;;;;;;;;;5096505;28;20212;-59
2023/03/20 08:28:40;;;;;;;1.10;1.10;;;;;;;;;;5096118;28;20227;-59
2023/03/20 08:31:07;;;;;;;1.00;1.00;;;;;;;;;;5089232;28;20207;-60
2023/03/20 08:33:34;;;;;;;2.13;1.17;;;;;;;;;;5084003;28;20398;-60
2023/03/20 08:36:01;;;;;;;0.90;0.90;;;;;;;;;;5087014;28;20206;-60
2023/03/20 08:38:27;;;;;;;1.17;1.17;;;;;;;;;;5086071;28;20205;-60
2023/03/20 08:40:54;;;;;;;1.45;1.17;;;;;;;;;;5088915;28;20257;-61
2023/03/20 08:43:20;;;;;;;1.20;1.20;;;;;;;;;;5096248;28;20333;-61
2023/03/20 08:45:47;;;;;;;1.33;1.10;;;;;;;;;;5095532;28;20218;-60
2023/03/20 08:48:13;;;;;;;1.02;1.02;;;;;;;;;;5096963;28;20208;-60
2023/03/20 08:50:40;;;;;;;2.00;0.98;;;;;;;;;;5095676;28;20207;-61
2023/03/20 08:53:07;;;;;;;0.90;0.90;;;;;;;;;;5096526;28;20207;-59
2023/03/20 08:55:34;;;;;;;1.48;0.63;;;;;;;;;;5095636;28;20207;-59
2023/03/20 08:58:00;;;;;;;0.70;0.70;;;;;;;;;;5094985;28;20218;-59
2023/03/20 09:00:27;;;;;;;1.42;0.80;;;;;;;;;;5092403;28;20234;-59
2023/03/20 09:02:53;;;;;;;0.77;0.77;;;;;;;;;;5094788;28;20348;-59
2023/03/20 09:05:19;;;;;;;0.90;0.90;;;;;;;;;;5092386;28;20208;-59
2023/03/20 09:07:45;;;;;;;1.65;0.60;;;;;;;;;;5083799;28;20256;-59
2023/03/20 09:10:13;;;;;;;0.80;0.80;;;;;;;;;;5087090;28;20216;-60
2023/03/20 09:12:40;;;;;;;3.10;0.80;;;;;;;;;;5094386;28;20207;-60
2023/03/20 09:15:07;;;;;;;0.77;0.77;;;;;;;;;;5095357;28;20218;-60
2023/03/20 09:17:33;;;;;;;0.68;0.65;;;;;;;;;;5095779;28;20253;-60
2023/03/20 09:19:59;;;;;;;1.02;0.80;;;;;;;;;;5095355;28;20387;-60
2023/03/20 09:22:25;;;;;;;1.00;1.00;;;;;;;;;;5095146;28;20455;-60
2023/03/20 09:24:52;;;;;;;0.88;0.88;;;;;;;;;;5095172;28;20233;-60
2023/03/20 09:27:20;;;;;;;3.65;1.35;;;;;;;;;;5094456;28;20226;-60
2023/03/20 09:29:46;;;;;;;1.42;1.33;;;;;;;;;;5094742;28;20211;-60
2023/03/20 09:32:13;;;;;;;1.75;1.10;;;;;;;;;;5096191;28;20211;-60
2023/03/20 09:34:40;;;;;;;0.98;0.98;;;;;;;;;;5095396;28;20207;-59
2023/03/20 09:37:06;;;;;;;0.88;0.88;;;;;;;;;;5095692;28;20478;-59
2023/03/20 09:39:33;;;;;;;0.88;0.88;;;;;;;;;;5095722;28;20551;-60
2023/03/20 09:42:02;;;;;;;0.70;0.70;;;;;;;;;;5095518;28;20212;-60
2023/03/20 09:44:39;;;;;;;1.02;1.02;;;;;;;;;;5091327;28;20227;-60
2023/03/20 09:47:10;;;;;;;0.90;0.90;;;;;;;;;;5094611;28;20224;-60
2023/03/20 09:49:43;;;;;;;1.05;1.00;;;;;;;;;;5094215;28;20272;-61
2023/03/20 09:52:16;;;;;;;0.70;0.70;;;;;;;;;;5094701;28;20244;-60
2023/03/20 09:54:43;;;;;;;0.85;0.85;;;;;;;;;;5095032;28;20214;-60
2023/03/20 09:57:16;;;;;;;0.80;0.80;;;;;;;;;;5094426;28;20211;-60
2023/03/20 09:59:44;;;;;;;0.80;0.80;;;;;;;;;;5095159;28;20211;-59
2023/03/20 10:02:14;;;;;;;1.10;1.10;;;;;;;;;;5094794;28;20239;-59
2023/03/20 10:04:41;;;;;;;1.45;1.00;;;;;;;;;;5098188;28;20259;-59
2023/03/20 10:07:10;;;;;;;1.67;0.90;;;;;;;;;;5098927;28;20310;-61
2023/03/20 10:09:36;;;;;;;0.98;0.98;;;;;;;;;;5099198;28;20224;-59
2023/03/20 10:12:08;;;;;;;0.90;0.90;;;;;;;;;;5098414;28;20231;-60
2023/03/20 10:14:39;;;;;;;0.55;0.55;;;;;;;;;;5098530;28;20282;-60
2023/03/20 10:17:13;;;;;;;0.60;0.60;;;;;;;;;;5099132;28;20211;-59
2023/03/20 10:19:43;;;;;;;0.82;0.82;;;;;;;;;;5096175;28;20566;-59
2023/03/20 10:22:13;;;;;;;0.80;0.80;;;;;;;;;;5095118;28;20419;-60
2023/03/20 10:24:41;;;;;;;0.80;0.80;;;;;;;;;;5092348;28;20236;-60
2023/03/20 10:27:14;;;;;;;1.00;1.00;;;;;;;;;;5090070;28;20512;-60
2023/03/20 10:29:47;;;;;;;0.73;0.73;;;;;;;;;;5086959;28;20219;-59
2023/03/20 10:32:20;;;;;;;1.05;0.90;;;;;;;;;;5088344;28;20212;-58
2023/03/20 10:34:57;;;;;;;0.77;0.73;;;;;;;;;;5090595;28;20204;-59
2023/03/20 10:37:28;;;;;;;1.27;0.70;;;;;;;;;;5097796;28;20262;-59
2023/03/20 10:40:01;;;;;;;1.17;0.40;;;;;;;;;;5098961;28;20256;-58
2023/03/20 10:42:28;;;;;;;0.65;0.65;;;;;;;;;;5099510;28;20383;-57
2023/03/20 10:44:56;;;;;;;1.02;0.90;;;;;;;;;;5098290;28;20253;-59
2023/03/20 10:47:27;;;;;;;0.80;0.75;;;;;;;;;;5098835;28;21058;-60
2023/03/20 10:49:54;;;;;;;0.70;0.70;;;;;;;;;;5098011;28;20449;-60
2023/03/20 10:52:25;;;;;;;1.38;0.80;;;;;;;;;;5098900;28;20261;-60
2023/03/20 10:54:54;;;;;;;2.10;1.10;;;;;;;;;;5098494;28;20207;-60
2023/03/20 10:57:22;;;;;;;0.90;0.90;;;;;;;;;;5098755;28;20553;-61
2023/03/20 10:59:49;;;;;;;1.00;1.00;;;;;;;;;;5097813;28;20624;-60
2023/03/20 11:02:16;;;;;;;0.80;0.80;;;;;;;;;;5098487;28;20278;-61
2023/03/20 11:04:44;;;;;;;0.70;0.70;;;;;;;;;;5097949;28;20477;-60
2023/03/20 11:07:14;;;;;;;0.82;0.77;;;;;;;;;;5098243;28;20222;-60
2023/03/20 11:09:41;;;;;;;0.63;0.63;;;;;;;;;;5097921;28;20286;-60
2023/03/20 11:12:15;;;;;;;1.23;0.90;;;;;;;;;;5098659;28;20423;-60
2023/03/20 11:14:41;;;;;;;3.50;1.70;;;;;;;;;;5097072;28;20429;-61
2023/03/20 11:17:07;;;;;;;3.70;0.98;;;;;;;;;;5098667;28;20208;-60
2023/03/20 11:19:35;;;;;;;1.10;0.88;;;;;;;;;;5094247;28;20218;-63
2023/03/20 11:22:07;;;;;;;1.38;0.80;;;;;;;;;;5091064;28;20204;-62
2023/03/20 11:24:36;;;;;;;0.52;0.52;;;;;;;;;;5087516;28;20245;-58
2023/03/20 11:27:08;;;;;;;0.90;0.90;;;;;;;;;;5097515;28;20215;-61
2023/03/20 11:29:35;;;;;;;0.70;0.70;;;;;;;;;;5097850;28;20215;-61
2023/03/20 11:32:06;;;;;;;1.23;0.98;;;;;;;;;;5098012;28;20215;-61
2023/03/20 11:34:35;;;;;;;0.90;0.90;;;;;;;;;;5097592;28;20598;-61
2023/03/20 11:37:06;;;;;;;0.90;0.90;;;;;;;;;;5097630;28;20218;-61
2023/03/20 11:39:32;;;;;;;1.02;1.02;;;;;;;;;;5097182;28;20234;-61
2023/03/20 11:42:00;;;;;;;0.80;0.80;;;;;;;;;;5097566;28;20227;-61
2023/03/20 11:44:27;;;;;;;1.05;0.80;;;;;;;;;;5096603;28;20258;-61
2023/03/20 11:46:55;;;;;;;2.72;1.48;;;;;;;;;;5096244;28;20227;-60
2023/03/20 11:49:23;;;;;;;1.75;1.30;;;;;;;;;;5097046;28;20318;-60
2023/03/20 11:51:50;;;;;;;1.90;1.67;;;;;;;;;;5097318;28;20418;-60
2023/03/20 11:54:19;;;;;;;1.50;1.40;;;;;;;;;;5097805;28;20270;-61
2023/03/20 11:56:52;;;;;;;1.90;1.80;;;;;;;;;;5096951;28;20463;-61
2023/03/20 11:59:19;;;;;;;1.92;1.83;;;;;;;;;;5097058;28;20216;-61
2023/03/20 12:01:47;;;;;;;2.88;1.80;;;;;;;;;;5096858;28;20212;-61
2023/03/20 12:04:15;;;;;;;2.00;1.90;;;;;;;;;;5097087;28;20250;-61
2023/03/20 12:06:47;;;;;;;2.85;1.60;;;;;;;;;;5096690;28;20219;-61
2023/03/20 12:09:24;;;;;;;2.28;1.80;;;;;;;;;;5097209;28;20226;-61
2023/03/20 12:11:52;;;;;;;2.20;2.00;;;;;;;;;;5096711;28;20729;-62
2023/03/20 12:14:21;;;;;;;2.20;2.10;;;;;;;;;;5096550;28;20584;-62
2023/03/20 12:16:49;;;;;;;1.85;1.85;;;;;;;;;;5096181;28;20211;-61
2023/03/20 12:19:18;;;;;;;2.13;1.95;;;;;;;;;;5096480;28;20412;-61
2023/03/20 12:21:46;;;;;;;2.45;2.35;;;;;;;;;;5085745;28;20209;-61
2023/03/20 12:24:14;;;;;;;2.30;2.17;;;;;;;;;;5092682;28;20231;-62
2023/03/20 12:26:45;;;;;;;2.17;2.08;;;;;;;;;;5095906;28;20215;-61
2023/03/20 12:29:17;;;;;;;2.35;2.25;;;;;;;;;;5089878;28;20227;-60
2023/03/20 12:31:46;;;;;;;3.22;2.58;;;;;;;;;;5095552;28;20215;-61
2023/03/20 12:34:15;;;;;;;2.70;2.60;;;;;;;;;;5089827;28;20209;-61
2023/03/20 12:36:42;;;;;;;3.60;2.80;;;;;;;;;;5085423;28;20574;-62
2023/03/20 12:39:11;;;;;;;2.78;2.67;;;;;;;;;;5091221;28;20208;-60
2023/03/20 12:41:40;;;;;;;3.03;2.83;;;;;;;;;;5087743;28;20391;-61
2023/03/20 12:44:21;;;;;;;3.47;3.25;;;;;;;;;;5096151;28;20238;-61
2023/03/20 12:46:51;;;;;;;2.70;2.60;;;;;;;;;;5094123;28;20302;-61
2023/03/20 12:49:22;;;;;;;2.80;2.70;;;;;;;;;;5096824;28;20212;-60
2023/03/20 12:51:55;;;;;;;3.30;3.00;;;;;;;;;;5090773;28;20378;-61
2023/03/20 12:54:27;;;;;;;2.88;2.70;;;;;;;;;;5079405;28;20201;-61
2023/03/20 12:57:02;;;;;;;2.92;2.72;;;;;;;;;;5093696;28;20216;-61
2023/03/20 12:59:31;;;;;;;3.50;3.20;;;;;;;;;;5096029;28;20210;-61
2023/03/20 13:02:01;;;;;;;3.72;3.40;;;;;;;;;;5095570;28;20534;-61
2023/03/20 13:04:45;;;;;;;3.08;2.63;;;;;;;;;;5094865;28;20269;-61
2023/03/20 13:07:16;;;;;;;4.13;3.05;;;;;;;;;;5095909;28;20219;-60
2023/03/20 13:09:50;;;;;;;3.15;2.97;;;;;;;;;;5096320;28;20424;-61
2023/03/20 13:12:25;;;;;;;4.45;2.88;;;;;;;;;;5096671;28;20241;-61
2023/03/20 13:14:54;;;;;;;2.72;2.63;;;;;;;;;;5095260;28;20566;-61
2023/03/20 13:17:25;;;;;;;3.60;2.67;;;;;;;;;;5096174;28;20218;-61
2023/03/20 13:19:56;;;;;;;2.50;2.40;;;;;;;;;;5095895;28;20442;-60
2023/03/20 13:22:26;;;;;;;3.20;3.00;;;;;;;;;;5096568;28;20215;-61
2023/03/20 13:24:54;;;;;;;2.90;2.80;;;;;;;;;;5095181;28;20235;-60
2023/03/20 13:27:26;;;;;;;2.45;2.35;;;;;;;;;;5095921;28;20485;-61
2023/03/20 13:29:54;;;;;;;2.40;2.30;;;;;;;;;;5087265;28;20262;-61
2023/03/20 13:32:25;;;;;;;4.47;2.70;;;;;;;;;;5087888;28;20215;-61
2023/03/20 13:35:07;;;;;;;2.35;2.25;;;;;;;;;;5085013;28;20468;-60
2023/03/20 13:37:35;;;;;;;2.50;2.40;;;;;;;;;;5091219;28;20205;-61
2023/03/20 13:40:05;;;;;;;3.20;2.70;;;;;;;;;;5091598;28;20204;-61
2023/03/20 13:42:35;;;;;;;4.28;2.65;;;;;;;;;;5084050;28;20193;-62
2023/03/20 13:45:04;;;;;;;2.50;2.40;;;;;;;;;;5097563;28;20227;-61
2023/03/20 13:47:33;;;;;;;3.40;2.88;;;;;;;;;;5095343;28;20393;-61
2023/03/20 13:50:05;;;;;;;3.10;2.75;;;;;;;;;;5086010;28;20201;-60
2023/03/20 13:52:34;;;;;;;2.83;2.63;;;;;;;;;;5099735;28;20204;-60
2023/03/20 13:55:10;;;;;;;2.10;2.00;;;;;;;;;;5097983;28;20223;-61
2023/03/20 13:57:57;;;;;;;2.65;2.47;;;;;;;;;;5085841;28;20204;-60
2023/03/20 14:00:26;;;;;;;8.32;2.90;;;;;;;;;;5079515;28;20211;-61
2023/03/20 14:03:11;;;;;;;2.00;2.00;;;;;;;;;;5092464;28;20212;-61
2023/03/20 14:05:38;;;;;;;2.63;2.42;;;;;;;;;;5092488;28;20273;-61
2023/03/20 14:08:19;;;;;;;3.08;2.85;;;;;;;;;;5097171;28;20211;-61
2023/03/20 14:10:46;;;;;;;2.83;2.63;;;;;;;;;;5096403;28;20265;-61
2023/03/20 14:13:14;;;;;;;3.83;2.60;;;;;;;;;;5096567;28;20219;-61
2023/03/20 14:15:45;;;;;;;2.35;2.20;;;;;;;;;;5095624;28;20405;-61
2023/03/20 14:18:15;;;;;;;2.53;2.42;;;;;;;;;;5096410;28;20234;-61
2023/03/20 14:20:43;;;;;;;2.92;2.60;;;;;;;;;;5094932;28;20240;-61
2023/03/20 14:23:16;;;;;;;2.75;2.65;;;;;;;;;;5095006;28;20218;-62
2023/03/20 14:25:43;;;;;;;3.92;2.30;;;;;;;;;;5094948;28;20242;-61
2023/03/20 14:28:23;;;;;;;2.92;2.50;;;;;;;;;;5095198;28;20227;-61
2023/03/20 14:30:50;;;;;;;3.78;2.45;;;;;;;;;;5095134;28;20304;-61
2023/03/20 14:33:30;;;;;;;2.60;2.50;;;;;;;;;;5094066;28;20203;-60
2023/03/20 14:36:19;;;;;;;2.30;2.20;;;;;;;;;;5094581;28;20207;-60
2023/03/20 14:38:49;;;;;;;3.60;3.30;;;;;;;;;;5095903;28;20551;-61
2023/03/20 14:41:16;;;;;;;7.97;6.15;;;;;;;;;;5095194;28;20218;-60
2023/03/20 14:43:57;;;;;;;4.57;3.78;;;;;;;;;;5094961;28;20219;-61
2023/03/20 14:46:26;;;;;;;4.50;3.17;;;;;;;;;;5096211;28;20553;-61
2023/03/20 14:48:55;;;;;;;4.78;2.90;;;;;;;;;;5102656;28;20271;-61
2023/03/20 14:51:31;;;;;;;2.70;2.50;;;;;;;;;;5105631;28;20230;-61